createdAt,value
2023-01-21T00:00:38.551Z,102407.52
2023-01-21T00:01:56.238Z,102406.63
2023-01-21T00:03:00.613Z,102399.92
2023-01-21T00:04:03.733Z,102404.88
2023-01-21T00:05:06.985Z,102403.67
2023-01-21T00:06:10.909Z,102407.01
2023-01-21T00:07:21.880Z,102405.76
2023-01-21T00:08:25.836Z,102404.37
2023-01-21T00:09:29.092Z,102400.45
2023-01-21T00:10:34.741Z,102404.77
2023-01-21T00:11:39.616Z,102402.92
2023-01-21T00:12:43.604Z,102399.45
2023-01-21T00:13:50.526Z,102402.55
2023-01-21T00:14:54.542Z,102402.38
2023-01-21T00:15:57.897Z,102406.04
2023-01-21T00:17:01.544Z,102407.42
2023-01-21T00:18:07.199Z,102410.17
2023-01-21T00:19:14.479Z,102409.79
2023-01-21T00:20:18.469Z,102409.52
2023-01-21T00:21:22.744Z,102405.27
2023-01-21T00:22:28.482Z,102407.10
2023-01-21T00:23:35.127Z,102406.73
2023-01-21T00:24:38.472Z,102402.27
2023-01-21T00:25:42.952Z,102403.30
2023-01-21T00:26:46.042Z,102403.60
2023-01-21T00:27:49.304Z,102401.09
2023-01-21T00:28:54.827Z,102400.55
2023-01-21T00:29:58.035Z,102402.61
2023-01-21T00:31:02.725Z,102401.32
2023-01-21T00:32:06.614Z,102401.30
2023-01-21T00:33:11.280Z,102402.95
2023-01-21T00:34:14.653Z,102403.23
2023-01-21T00:35:17.865Z,102406.02
2023-01-21T00:36:22.643Z,102407.19
2023-01-21T00:37:25.629Z,102401.99
2023-01-21T00:38:29.435Z,102402.92
2023-01-21T00:39:32.302Z,102396.31
2023-01-21T00:40:35.189Z,102399.88
2023-01-21T00:41:38.156Z,102400.64
2023-01-21T00:42:41.156Z,102400.89
2023-01-21T00:43:44.327Z,102399.24
2023-01-21T00:44:47.286Z,102395.23
2023-01-21T00:45:50.296Z,102397.42
2023-01-21T00:46:53.174Z,102398.86
2023-01-21T00:47:56.125Z,102402.39
2023-01-21T00:49:00.406Z,102399.42
2023-01-21T00:50:03.893Z,102400.91
2023-01-21T00:51:07.258Z,102405.02
2023-01-21T00:52:10.271Z,102404.71
2023-01-21T00:53:13.200Z,102406.36
2023-01-21T00:54:16.243Z,102404.09
2023-01-21T00:55:19.213Z,102403.70
2023-01-21T00:56:23.841Z,102402.49
2023-01-21T00:57:26.954Z,102402.64
2023-01-21T00:58:30.262Z,102400.44
2023-01-21T00:59:33.852Z,102404.02
2023-01-21T01:00:36.762Z,102401.42
2023-01-21T01:01:39.979Z,102402.20
2023-01-21T01:02:43.017Z,102403.19
2023-01-21T01:03:46.913Z,102404.48
2023-01-21T01:04:50.182Z,102403.52
2023-01-21T01:05:53.109Z,102405.16
2023-01-21T01:06:56.423Z,102404.33
2023-01-21T01:07:59.407Z,102402.59
2023-01-21T01:09:02.655Z,102402.55
2023-01-21T01:10:06.833Z,102400.14
2023-01-21T01:11:12.454Z,102401.58
2023-01-21T01:12:15.613Z,102397.06
2023-01-21T01:13:18.826Z,102396.42
2023-01-21T01:14:22.963Z,102394.56
2023-01-21T01:15:28.325Z,102393.10
2023-01-21T01:16:31.680Z,102389.98
2023-01-21T01:17:35.205Z,102388.33
2023-01-21T01:18:39.002Z,102390.33
2023-01-21T01:19:44.187Z,102388.05
2023-01-21T01:20:47.596Z,102386.14
2023-01-21T01:21:53.025Z,102389.52
2023-01-21T01:22:55.902Z,102388.56
2023-01-21T01:24:03.060Z,102385.92
2023-01-21T01:25:08.053Z,102389.77
2023-01-21T01:26:12.779Z,102386.30
2023-01-21T01:27:15.898Z,102386.30
2023-01-21T01:28:18.780Z,102382.25
2023-01-21T01:29:21.679Z,102384.52
2023-01-21T01:30:25.018Z,102377.02
2023-01-21T01:31:28.302Z,102381.25
2023-01-21T01:32:31.285Z,102380.58
2023-01-21T01:33:34.993Z,102379.84
2023-01-21T01:34:38.543Z,102383.33
2023-01-21T01:35:42.121Z,102381.19
2023-01-21T01:36:53.611Z,102383.19
2023-01-21T01:38:07.853Z,102378.66
2023-01-21T01:39:10.964Z,102377.70
2023-01-21T01:40:14.425Z,102382.10
2023-01-21T01:41:20.449Z,102381.45
2023-01-21T01:42:26.363Z,102387.67
2023-01-21T01:43:58.184Z,102384.86
2023-01-21T01:45:06.012Z,102386.27
2023-01-21T01:46:30.913Z,102383.38
2023-01-21T01:47:40.470Z,102384.75
2023-01-21T01:48:45.699Z,102385.54
2023-01-21T01:49:53.792Z,102382.48
2023-01-21T01:51:03.670Z,102384.24
2023-01-21T01:52:08.868Z,102389.01
2023-01-21T01:53:13.643Z,102389.04
2023-01-21T01:54:23.081Z,102383.89
2023-01-21T01:55:26.799Z,102388.36
2023-01-21T01:56:30.379Z,102392.85
2023-01-21T01:57:38.073Z,102387.36
2023-01-21T01:58:43.960Z,102390.61
2023-01-21T01:59:47.200Z,102384.72
2023-01-21T02:00:51.415Z,102389.59
2023-01-21T02:01:56.614Z,102390.52
2023-01-21T02:03:18.203Z,102389.70
2023-01-21T02:04:23.181Z,102393.08
2023-01-21T02:05:26.788Z,102387.52
2023-01-21T02:06:29.654Z,102389.69
2023-01-21T02:07:39.494Z,102386.96
2023-01-21T02:08:43.922Z,102392.09
2023-01-21T02:09:47.082Z,102387.92
2023-01-21T02:10:52.480Z,102386.29
2023-01-21T02:11:59.585Z,102383.70
2023-01-21T02:13:04.269Z,102380.45
2023-01-21T02:14:07.953Z,102382.64
2023-01-21T02:15:11.161Z,102383.58
2023-01-21T02:16:26.634Z,102382.91
2023-01-21T02:17:34.786Z,102380.54
2023-01-21T02:18:54.333Z,102387.84
2023-01-21T02:20:17.538Z,102389.34
2023-01-21T02:21:24.287Z,102390.37
2023-01-21T02:22:48.107Z,102390.05
2023-01-21T02:24:06.873Z,102397.60
2023-01-21T02:25:15.452Z,102401.90
2023-01-21T02:26:45.235Z,102403.78
2023-01-21T02:28:03.471Z,102411.64
2023-01-21T02:29:12.888Z,102415.77
2023-01-21T02:31:55.883Z,102423.20
2023-01-21T02:33:03.093Z,102428.13
2023-01-21T02:34:18.069Z,102428.24
2023-01-21T02:35:36.405Z,102431.91
2023-01-21T02:36:43.542Z,102433.69
2023-01-21T02:37:51.952Z,102433.71
2023-01-21T02:39:04.085Z,102436.36
2023-01-21T02:40:09.899Z,102433.52
2023-01-21T02:41:24.989Z,102434.49
2023-01-21T02:42:47.163Z,102434.75
2023-01-21T02:44:10.379Z,102430.91
2023-01-21T02:45:13.295Z,102432.80
2023-01-21T02:46:26.128Z,102433.23
2023-01-21T02:47:34.633Z,102435.73
2023-01-21T02:48:42.766Z,102437.23
2023-01-21T02:49:50.700Z,102434.68
2023-01-21T02:50:53.959Z,102436.91
2023-01-21T02:51:59.365Z,102434.39
2023-01-21T02:53:04.392Z,102438.91
2023-01-21T02:54:36.247Z,102439.23
2023-01-21T02:55:39.587Z,102441.20
2023-01-21T02:56:44.134Z,102445.55
2023-01-21T02:57:46.989Z,102443.23
2023-01-21T02:58:52.341Z,102449.55
2023-01-21T02:59:56.865Z,102454.13
2023-01-21T03:01:05.520Z,102453.38
2023-01-21T03:02:13.464Z,102449.30
2023-01-21T03:03:32.763Z,102445.23
2023-01-21T03:04:58.490Z,102443.20
2023-01-21T03:06:07.545Z,102446.68
2023-01-21T03:07:15.687Z,102449.84
2023-01-21T03:08:22.480Z,102450.41
2023-01-21T03:09:26.269Z,102452.36
2023-01-21T03:10:36.355Z,102451.20
2023-01-21T03:11:41.900Z,102454.84
2023-01-21T03:12:51.114Z,102456.36
2023-01-21T03:14:32.727Z,102452.23
2023-01-21T03:15:58.439Z,102450.98
2023-01-21T03:17:28.056Z,102448.01
2023-01-21T03:18:39.238Z,102445.56
2023-01-21T03:19:50.369Z,102440.96
2023-01-21T03:21:03.120Z,102441.13
2023-01-21T03:22:09.085Z,102450.39
2023-01-21T03:23:17.689Z,102449.50
2023-01-21T03:24:20.737Z,102458.66
2023-01-21T03:25:24.460Z,102456.58
2023-01-21T03:26:31.027Z,102463.14
2023-01-21T03:27:35.290Z,102463.79
2023-01-21T03:28:41.596Z,102462.48
2023-01-21T03:29:45.517Z,102457.61
2023-01-21T03:30:52.602Z,102453.31
2023-01-21T03:32:04.039Z,102444.08
2023-01-21T03:33:07.825Z,102441.23
2023-01-21T03:34:13.794Z,102442.20
2023-01-21T03:35:20.085Z,102440.42
2023-01-21T03:36:41.570Z,102438.98
2023-01-21T03:37:50.027Z,102448.34
2023-01-21T03:38:56.245Z,102449.77
2023-01-21T03:39:59.300Z,102451.54
2023-01-21T03:41:18.735Z,102453.17
2023-01-21T03:42:22.910Z,102458.64
2023-01-21T03:43:25.901Z,102461.64
2023-01-21T03:44:28.871Z,102470.47
2023-01-21T03:45:35.832Z,102471.50
2023-01-21T03:46:57.294Z,102467.16
2023-01-21T03:48:04.058Z,102467.44
2023-01-21T03:49:12.855Z,102471.15
2023-01-21T03:50:27.699Z,102466.30
2023-01-21T03:51:34.122Z,102466.82
2023-01-21T03:52:41.671Z,102467.35
2023-01-21T03:53:44.900Z,102459.16
2023-01-21T03:54:49.080Z,102462.99
2023-01-21T03:55:51.926Z,102463.91
2023-01-21T03:56:54.788Z,102461.89
2023-01-21T03:57:57.992Z,102465.59
2023-01-21T03:59:00.898Z,102466.67
2023-01-21T04:00:05.088Z,102465.20
2023-01-21T04:01:08.805Z,102462.36
2023-01-21T04:02:12.078Z,102465.40
2023-01-21T04:03:15.126Z,102466.77
2023-01-21T04:04:18.078Z,102467.38
2023-01-21T04:05:20.890Z,102474.66
2023-01-21T04:06:23.818Z,102475.59
2023-01-21T04:07:26.883Z,102477.13
2023-01-21T04:08:29.920Z,102478.88
2023-01-21T04:09:32.843Z,102486.42
2023-01-21T04:10:35.704Z,102489.73
2023-01-21T04:11:38.633Z,102488.69
2023-01-21T04:12:41.511Z,102490.59
2023-01-21T04:13:44.686Z,102488.98
2023-01-21T04:14:47.636Z,102489.65
2023-01-21T04:15:50.535Z,102489.21
2023-01-21T04:16:56.085Z,102489.92
2023-01-21T04:17:59.126Z,102492.91
2023-01-21T04:19:02.296Z,102489.31
2023-01-21T04:20:06.176Z,102489.92
2023-01-21T04:21:09.008Z,102488.89
2023-01-21T04:22:11.948Z,102495.27
2023-01-21T04:23:14.766Z,102492.98
2023-01-21T04:24:17.771Z,102494.84
2023-01-21T04:25:20.721Z,102493.10
2023-01-21T04:26:23.606Z,102488.91
2023-01-21T04:27:26.409Z,102490.71
2023-01-21T04:28:29.264Z,102490.35
2023-01-21T04:29:32.211Z,102487.29
2023-01-21T04:30:35.170Z,102493.52
2023-01-21T04:31:38.138Z,102493.73
2023-01-21T04:32:41.071Z,102493.03
2023-01-21T04:33:44.024Z,102492.70
2023-01-21T04:34:47.112Z,102488.09
2023-01-21T04:35:50.135Z,102490.02
2023-01-21T04:36:53.072Z,102495.52
2023-01-21T04:37:55.921Z,102497.13
2023-01-21T04:38:58.769Z,102492.63
2023-01-21T04:40:02.238Z,102501.16
2023-01-21T04:41:05.209Z,102505.58
2023-01-21T04:42:08.107Z,102501.23
2023-01-21T04:43:10.941Z,102505.57
2023-01-21T04:44:13.893Z,102505.23
2023-01-21T04:45:17.061Z,102503.52
2023-01-21T04:46:19.934Z,102507.06
2023-01-21T04:47:23.165Z,102498.98
2023-01-21T04:48:26.029Z,102501.73
2023-01-21T04:49:29.035Z,102499.37
2023-01-21T04:50:31.952Z,102495.34
2023-01-21T04:51:35.048Z,102497.71
2023-01-21T04:52:38.423Z,102497.52
2023-01-21T04:53:41.277Z,102502.66
2023-01-21T04:54:44.194Z,102500.73
2023-01-21T04:55:47.337Z,102503.05
2023-01-21T04:56:50.444Z,102504.31
2023-01-21T04:57:53.433Z,102498.00
2023-01-21T04:58:57.671Z,102494.82
2023-01-21T05:00:00.740Z,102494.95
2023-01-21T05:01:03.840Z,102492.04
2023-01-21T05:02:06.804Z,102490.05
2023-01-21T05:03:09.622Z,102486.52
2023-01-21T05:04:12.664Z,102483.70
2023-01-21T05:05:15.713Z,102488.81
2023-01-21T05:06:18.699Z,102482.48
2023-01-21T05:07:21.841Z,102486.64
2023-01-21T05:08:24.747Z,102478.20
2023-01-21T05:09:27.877Z,102481.77
2023-01-21T05:10:30.726Z,102486.27
2023-01-21T05:11:33.872Z,102481.88
2023-01-21T05:12:36.769Z,102475.17
2023-01-21T05:13:39.537Z,102494.31
2023-01-21T05:14:42.412Z,102494.09
2023-01-21T05:15:45.481Z,102491.30
2023-01-21T05:16:48.651Z,102490.30
2023-01-21T05:17:51.596Z,102494.46
2023-01-21T05:18:54.481Z,102493.63
2023-01-21T05:19:57.421Z,102497.11
2023-01-21T05:21:00.305Z,102486.89
2023-01-21T05:22:03.440Z,102482.48
2023-01-21T05:23:06.289Z,102478.78
2023-01-21T05:24:09.289Z,102478.06
2023-01-21T05:25:12.399Z,102477.70
2023-01-21T05:26:15.220Z,102479.29
2023-01-21T05:27:19.996Z,102475.83
2023-01-21T05:28:23.060Z,102471.98
2023-01-21T05:30:09.688Z,102475.02
2023-01-21T05:31:12.812Z,102474.15
2023-01-21T05:32:16.702Z,102477.91
2023-01-21T05:33:26.205Z,102475.63
2023-01-21T05:34:29.176Z,102483.81
2023-01-21T05:35:34.761Z,102481.86
2023-01-21T05:36:38.481Z,102486.70
2023-01-21T05:37:41.345Z,102486.69
2023-01-21T05:38:44.280Z,102485.33
2023-01-21T05:39:47.145Z,102483.40
2023-01-21T05:40:50.058Z,102483.02
2023-01-21T05:41:52.968Z,102485.95
2023-01-21T05:42:55.810Z,102484.33
2023-01-21T05:43:58.948Z,102479.58
2023-01-21T05:45:02.003Z,102489.70
2023-01-21T05:46:07.886Z,102492.70
2023-01-21T05:47:11.960Z,102490.89
2023-01-21T05:48:17.068Z,102492.86
2023-01-21T05:49:22.688Z,102488.95
2023-01-21T05:50:26.532Z,102488.57
2023-01-21T05:51:29.648Z,102490.50
2023-01-21T05:52:34.443Z,102489.66
2023-01-21T05:53:37.295Z,102488.04
2023-01-21T05:54:52.472Z,102491.23
2023-01-21T05:56:03.688Z,102491.73
2023-01-21T05:57:06.576Z,102491.27
2023-01-21T05:58:09.486Z,102497.52
2023-01-21T05:59:12.394Z,102493.95
2023-01-21T06:00:15.923Z,102495.34
2023-01-21T06:01:19.175Z,102492.55
2023-01-21T06:02:22.171Z,102488.84
2023-01-21T06:03:25.283Z,102489.88
2023-01-21T06:04:30.691Z,102481.08
2023-01-21T06:05:33.862Z,102478.98
2023-01-21T06:06:36.842Z,102480.55
2023-01-21T06:07:39.884Z,102486.60
2023-01-21T06:08:42.852Z,102483.82
2023-01-21T06:09:45.991Z,102487.15
2023-01-21T06:10:49.169Z,102477.75
2023-01-21T06:11:52.071Z,102485.52
2023-01-21T06:12:54.863Z,102482.35
2023-01-21T06:13:57.669Z,102482.84
2023-01-21T06:15:00.596Z,102481.66
2023-01-21T06:16:04.988Z,102479.95
2023-01-21T06:17:08.842Z,102482.04
2023-01-21T06:18:11.718Z,102474.59
2023-01-21T06:19:14.616Z,102477.83
2023-01-21T06:20:18.064Z,102483.75
2023-01-21T06:21:21.432Z,102481.46
2023-01-21T06:22:24.412Z,102479.58
2023-01-21T06:23:27.554Z,102482.72
2023-01-21T06:24:30.388Z,102481.67
2023-01-21T06:25:34.353Z,102480.42
2023-01-21T06:26:39.569Z,102483.08
2023-01-21T06:27:42.390Z,102484.64
2023-01-21T06:28:45.729Z,102482.38
2023-01-21T06:29:48.567Z,102486.29
2023-01-21T06:30:51.603Z,102484.55
2023-01-21T06:31:54.925Z,102491.61
2023-01-21T06:32:58.117Z,102488.94
2023-01-21T06:34:01.004Z,102490.30
2023-01-21T06:35:04.447Z,102487.86
2023-01-21T06:36:07.567Z,102490.67
2023-01-21T06:37:11.329Z,102491.17
2023-01-21T06:38:14.543Z,102494.58
2023-01-21T06:39:17.384Z,102497.45
2023-01-21T06:40:20.311Z,102498.30
2023-01-21T06:41:23.631Z,102499.01
2023-01-21T06:42:26.558Z,102495.10
2023-01-21T06:43:29.517Z,102498.05
2023-01-21T06:44:32.385Z,102496.62
2023-01-21T06:45:35.244Z,102500.48
2023-01-21T06:46:41.276Z,102494.39
2023-01-21T06:47:46.900Z,102498.83
2023-01-21T06:48:49.890Z,102501.18
2023-01-21T06:49:53.192Z,102500.15
2023-01-21T06:50:56.150Z,102498.58
2023-01-21T06:51:59.085Z,102497.73
2023-01-21T06:53:02.458Z,102499.85
2023-01-21T06:54:05.354Z,102500.91
2023-01-21T06:55:08.440Z,102509.61
2023-01-21T06:56:11.335Z,102503.45
2023-01-21T06:57:14.790Z,102502.55
2023-01-21T06:58:17.915Z,102506.98
2023-01-21T06:59:21.048Z,102501.35
2023-01-21T07:00:23.990Z,102504.73
2023-01-21T07:01:26.921Z,102507.30
2023-01-21T07:02:30.066Z,102514.00
2023-01-21T07:03:33.311Z,102509.14
2023-01-21T07:04:36.206Z,102507.67
2023-01-21T07:05:39.172Z,102510.09
2023-01-21T07:06:42.470Z,102511.33
2023-01-21T07:07:45.302Z,102516.95
2023-01-21T07:08:48.989Z,102517.88
2023-01-21T07:09:52.112Z,102521.49
2023-01-21T07:10:54.947Z,102517.73
2023-01-21T07:11:58.785Z,102516.32
2023-01-21T07:13:01.850Z,102521.76
2023-01-21T07:14:05.099Z,102515.81
2023-01-21T07:15:08.412Z,102519.05
2023-01-21T07:16:11.432Z,102520.44
2023-01-21T07:17:14.632Z,102515.86
2023-01-21T07:18:17.570Z,102523.33
2023-01-21T07:19:20.734Z,102523.88
2023-01-21T07:20:23.874Z,102524.27
2023-01-21T07:21:26.738Z,102524.96
2023-01-21T07:22:29.609Z,102522.98
2023-01-21T07:23:32.411Z,102529.71
2023-01-21T07:24:35.380Z,102525.48
2023-01-21T07:25:38.271Z,102532.52
2023-01-21T07:26:41.678Z,102527.57
2023-01-21T07:27:44.509Z,102528.37
2023-01-21T07:28:47.356Z,102525.86
2023-01-21T07:29:50.430Z,102527.03
2023-01-21T07:30:53.458Z,102525.66
2023-01-21T07:31:56.356Z,102522.63
2023-01-21T07:33:04.494Z,102519.16
2023-01-21T07:34:07.442Z,102514.58
2023-01-21T07:35:10.450Z,102520.20
2023-01-21T07:36:13.357Z,102516.65
2023-01-21T07:37:16.181Z,102517.91
2023-01-21T07:38:19.180Z,102521.71
2023-01-21T07:39:22.119Z,102518.70
2023-01-21T07:40:25.240Z,102519.04
2023-01-21T07:41:28.121Z,102516.37
2023-01-21T07:42:30.997Z,102515.30
2023-01-21T07:43:33.834Z,102508.90
2023-01-21T07:44:36.840Z,102515.55
2023-01-21T07:45:39.884Z,102513.79
2023-01-21T07:46:42.899Z,102512.56
2023-01-21T07:47:46.395Z,102513.38
2023-01-21T07:48:51.052Z,102510.14
2023-01-21T07:49:54.100Z,102515.24
2023-01-21T07:51:00.336Z,102516.61
2023-01-21T07:52:03.247Z,102507.76
2023-01-21T07:53:06.190Z,102515.98
2023-01-21T07:54:10.180Z,102517.40
2023-01-21T07:55:17.937Z,102513.16
2023-01-21T07:56:22.094Z,102514.00
2023-01-21T07:57:24.994Z,102524.20
2023-01-21T07:58:27.974Z,102522.42
2023-01-21T07:59:30.940Z,102519.86
2023-01-21T08:00:33.820Z,102519.08
2023-01-21T08:01:36.784Z,102515.42
2023-01-21T08:02:40.319Z,102523.70
2023-01-21T08:03:43.617Z,102525.65
2023-01-21T08:04:46.524Z,102523.48
2023-01-21T08:05:50.963Z,102527.05
2023-01-21T08:06:57.075Z,102523.86
2023-01-21T08:08:00.331Z,102527.02
2023-01-21T08:09:03.803Z,102527.65
2023-01-21T08:10:06.769Z,102524.05
2023-01-21T08:11:09.727Z,102526.79
2023-01-21T08:12:12.633Z,102524.80
2023-01-21T08:13:15.471Z,102528.62
2023-01-21T08:14:18.345Z,102524.18
2023-01-21T08:15:21.322Z,102523.63
2023-01-21T08:16:24.280Z,102525.48
2023-01-21T08:17:27.506Z,102523.36
2023-01-21T08:18:30.316Z,102524.95
2023-01-21T08:19:33.289Z,102529.83
2023-01-21T08:20:36.191Z,102525.63
2023-01-21T08:21:39.004Z,102529.65
2023-01-21T08:22:42.021Z,102527.20
2023-01-21T08:23:44.824Z,102530.41
2023-01-21T08:24:47.795Z,102535.54
2023-01-21T08:25:50.614Z,102534.09
2023-01-21T08:26:57.420Z,102536.34
2023-01-21T08:28:01.784Z,102537.17
2023-01-21T08:29:04.683Z,102533.34
2023-01-21T08:30:08.135Z,102533.75
2023-01-21T08:31:12.683Z,102529.98
2023-01-21T08:32:16.104Z,102526.80
2023-01-21T08:33:19.514Z,102524.90
2023-01-21T08:34:22.404Z,102528.11
2023-01-21T08:35:25.462Z,102523.33
2023-01-21T08:36:28.423Z,102526.89
2023-01-21T08:37:31.296Z,102521.96
2023-01-21T08:38:34.788Z,102527.34
2023-01-21T08:39:37.689Z,102524.30
2023-01-21T08:40:40.430Z,102537.79
2023-01-21T08:41:44.206Z,102527.33
2023-01-21T08:42:47.056Z,102530.73
2023-01-21T08:43:50.040Z,102529.52
2023-01-21T08:44:54.200Z,102525.34
2023-01-21T08:45:59.113Z,102530.43
2023-01-21T08:47:02.178Z,102528.29
2023-01-21T08:48:05.243Z,102525.58
2023-01-21T08:49:08.340Z,102530.50
2023-01-21T08:50:11.295Z,102526.42
2023-01-21T08:51:14.140Z,102526.98
2023-01-21T08:52:20.862Z,102534.55
2023-01-21T08:53:24.354Z,102523.54
2023-01-21T08:54:27.321Z,102527.02
2023-01-21T08:55:30.307Z,102519.34
2023-01-21T08:56:33.243Z,102524.48
2023-01-21T08:57:36.094Z,102526.06
2023-01-21T08:58:38.976Z,102527.08
2023-01-21T08:59:41.937Z,102525.61
2023-01-21T09:00:44.929Z,102524.33
2023-01-21T09:01:47.793Z,102522.52
2023-01-21T09:02:51.810Z,102518.24
2023-01-21T09:04:01.096Z,102525.15
2023-01-21T09:05:04.186Z,102510.85
2023-01-21T09:06:07.548Z,102521.42
2023-01-21T09:07:10.383Z,102527.27
2023-01-21T09:08:13.508Z,102518.23
2023-01-21T09:09:16.664Z,102521.34
2023-01-21T09:10:38.382Z,102515.27
2023-01-21T09:11:41.821Z,102520.35
2023-01-21T09:12:44.629Z,102513.71
2023-01-21T09:13:47.467Z,102512.58
2023-01-21T09:14:50.534Z,102513.71
2023-01-21T09:15:53.640Z,102511.11
2023-01-21T09:16:56.568Z,102510.53
2023-01-21T09:17:59.496Z,102507.77
2023-01-21T09:19:02.784Z,102504.45
2023-01-21T09:20:05.813Z,102500.71
2023-01-21T09:21:09.532Z,102505.70
2023-01-21T09:22:13.923Z,102503.98
2023-01-21T09:23:25.670Z,102505.70
2023-01-21T09:24:28.849Z,102505.48
2023-01-21T09:25:34.119Z,102497.58
2023-01-21T09:26:37.282Z,102501.85
2023-01-21T09:27:40.077Z,102497.14
2023-01-21T09:28:43.996Z,102495.75
2023-01-21T09:29:46.958Z,102496.77
2023-01-21T09:30:49.875Z,102491.00
2023-01-21T09:31:53.012Z,102490.64
2023-01-21T09:32:56.247Z,102494.88
2023-01-21T09:34:00.262Z,102497.84
2023-01-21T09:35:03.133Z,102496.23
2023-01-21T09:36:07.263Z,102491.86
2023-01-21T09:37:10.443Z,102489.52
2023-01-21T09:38:13.307Z,102490.23
2023-01-21T09:39:16.172Z,102481.44
2023-01-21T09:40:19.159Z,102488.85
2023-01-21T09:41:24.615Z,102489.70
2023-01-21T09:42:30.337Z,102489.16
2023-01-21T09:43:37.070Z,102482.60
2023-01-21T09:44:44.789Z,102484.75
2023-01-21T09:45:48.727Z,102482.22
2023-01-21T09:46:57.665Z,102481.48
2023-01-21T09:48:01.644Z,102480.91
2023-01-21T09:49:06.583Z,102480.16
2023-01-21T09:50:14.901Z,102469.72
2023-01-21T09:51:28.547Z,102476.42
2023-01-21T09:52:41.732Z,102473.93
2023-01-21T09:53:49.563Z,102465.41
2023-01-21T09:54:52.595Z,102465.16
2023-01-21T09:55:58.931Z,102453.31
2023-01-21T09:57:09.980Z,102472.59
2023-01-21T09:58:25.528Z,102466.77
2023-01-21T10:00:06.725Z,102463.08
2023-01-21T10:01:20.636Z,102467.10
2023-01-21T10:02:35.484Z,102464.75
2023-01-21T10:03:44.426Z,102468.27
2023-01-21T10:04:57.995Z,102461.71
2023-01-21T10:06:08.486Z,102468.75
2023-01-21T10:07:16.337Z,102463.93
2023-01-21T10:08:31.743Z,102462.31
2023-01-21T10:09:40.766Z,102451.54
2023-01-21T10:11:02.405Z,102450.11
2023-01-21T10:12:05.241Z,102463.09
2023-01-21T10:13:20.594Z,102459.47
2023-01-21T10:14:26.595Z,102463.46
2023-01-21T10:15:36.684Z,102461.70
2023-01-21T10:16:55.071Z,102462.38
2023-01-21T10:18:08.084Z,102458.54
2023-01-21T10:19:17.498Z,102456.60
2023-01-21T10:20:39.119Z,102454.34
2023-01-21T10:21:47.042Z,102454.75
2023-01-21T10:22:54.776Z,102454.27
2023-01-21T10:24:01.018Z,102455.16
2023-01-21T10:25:13.377Z,102458.13
2023-01-21T10:26:16.271Z,102453.33
2023-01-21T10:27:20.530Z,102451.66
2023-01-21T10:28:24.633Z,102456.60
2023-01-21T10:29:27.828Z,102460.48
2023-01-21T10:30:39.065Z,102454.67
2023-01-21T10:31:44.509Z,102449.95
2023-01-21T10:32:50.357Z,102450.56
2023-01-21T10:33:53.290Z,102447.74
2023-01-21T10:34:57.445Z,102446.63
2023-01-21T10:36:13.299Z,102451.79
2023-01-21T10:37:29.465Z,102454.36
2023-01-21T10:38:38.899Z,102450.71
2023-01-21T10:40:00.559Z,102455.47
2023-01-21T10:41:26.121Z,102448.73
2023-01-21T10:42:49.828Z,102457.35
2023-01-21T10:44:13.497Z,102456.80
2023-01-21T10:45:22.425Z,102443.73
2023-01-21T10:46:25.398Z,102450.48
2023-01-21T10:47:34.818Z,102454.80
2023-01-21T10:48:42.967Z,102453.30
2023-01-21T10:50:16.700Z,102452.77
2023-01-21T10:51:52.117Z,102447.36
2023-01-21T10:53:14.344Z,102451.48
2023-01-21T10:54:26.090Z,102452.64
2023-01-21T10:55:39.695Z,102446.02
2023-01-21T10:56:42.565Z,102441.33
2023-01-21T10:57:46.595Z,102440.77
2023-01-21T10:58:52.410Z,102436.02
2023-01-21T10:59:57.826Z,102439.61
2023-01-21T11:01:03.399Z,102436.18
2023-01-21T11:02:11.146Z,102441.92
2023-01-21T11:03:24.386Z,102437.40
2023-01-21T11:04:28.149Z,102444.85
2023-01-21T11:05:32.616Z,102435.00
2023-01-21T11:06:35.558Z,102440.30
2023-01-21T11:07:42.502Z,102433.73
2023-01-21T11:08:48.289Z,102442.05
2023-01-21T11:09:51.852Z,102436.01
2023-01-21T11:10:55.569Z,102435.13
2023-01-21T11:12:00.864Z,102430.23
2023-01-21T11:13:03.882Z,102430.33
2023-01-21T11:14:06.937Z,102436.56
2023-01-21T11:15:14.199Z,102431.66
2023-01-21T11:16:30.591Z,102430.42
2023-01-21T11:17:35.087Z,102427.64
2023-01-21T11:18:37.959Z,102428.77
2023-01-21T11:19:42.272Z,102427.33
2023-01-21T11:20:45.143Z,102425.71
2023-01-21T11:22:06.407Z,102427.98
2023-01-21T11:23:25.409Z,102423.27
2023-01-21T11:24:29.743Z,102428.04
2023-01-21T11:25:41.829Z,102427.81
2023-01-21T11:26:50.856Z,102428.48
2023-01-21T11:27:53.952Z,102428.17
2023-01-21T11:29:12.133Z,102428.50
2023-01-21T11:30:52.010Z,102422.14
2023-01-21T11:32:14.161Z,102430.17
2023-01-21T11:33:23.369Z,102426.91
2023-01-21T11:34:26.589Z,102434.15
2023-01-21T11:35:30.127Z,102428.98
2023-01-21T11:36:34.806Z,102429.46
2023-01-21T11:37:38.191Z,102431.02
2023-01-21T11:38:41.594Z,102430.17
2023-01-21T11:40:13.240Z,102431.25
2023-01-21T11:41:22.689Z,102431.89
2023-01-21T11:42:28.252Z,102433.12
2023-01-21T11:43:55.275Z,102426.48
2023-01-21T11:45:01.437Z,102430.75
2023-01-21T11:46:21.171Z,102427.48
2023-01-21T11:47:38.688Z,102429.20
2023-01-21T11:48:46.597Z,102427.67
2023-01-21T11:49:49.563Z,102420.41
2023-01-21T11:51:05.878Z,102418.98
2023-01-21T11:52:16.782Z,102421.10
2023-01-21T11:53:19.712Z,102429.09
2023-01-21T11:54:23.750Z,102426.15
2023-01-21T11:55:26.645Z,102423.66
2023-01-21T11:56:29.730Z,102422.05
2023-01-21T11:57:33.315Z,102424.77
2023-01-21T11:58:39.141Z,102425.91
2023-01-21T11:59:45.877Z,102427.44
2023-01-21T12:00:50.803Z,102426.11
2023-01-21T12:01:59.054Z,102427.73
2023-01-21T12:03:04.314Z,102427.61
2023-01-21T12:04:14.594Z,102431.45
2023-01-21T12:05:27.339Z,102425.13
2023-01-21T12:06:30.919Z,102432.95
2023-01-21T12:07:36.235Z,102431.72
2023-01-21T12:08:40.555Z,102424.35
2023-01-21T12:09:47.864Z,102428.67
2023-01-21T12:10:51.767Z,102426.41
2023-01-21T12:12:10.224Z,102426.80
2023-01-21T12:13:31.947Z,102422.31
2023-01-21T12:14:50.320Z,102423.20
2023-01-21T12:16:11.865Z,102416.05
2023-01-21T12:17:37.856Z,102419.39
2023-01-21T12:18:42.763Z,102419.44
2023-01-21T12:19:57.296Z,102428.77
2023-01-21T12:21:00.822Z,102424.29
2023-01-21T12:22:06.859Z,102432.05
2023-01-21T12:23:32.120Z,102431.11
2023-01-21T12:24:47.490Z,102425.25
2023-01-21T12:26:10.601Z,102425.58
2023-01-21T12:27:13.590Z,102425.65
2023-01-21T12:28:41.884Z,102423.10
2023-01-21T12:29:53.949Z,102423.20
2023-01-21T12:30:56.838Z,102428.94
2023-01-21T12:32:02.274Z,102434.38
2023-01-21T12:33:13.018Z,102429.58
2023-01-21T12:34:22.089Z,102432.45
2023-01-21T12:35:40.935Z,102431.47
2023-01-21T12:36:47.889Z,102427.67
2023-01-21T12:38:24.179Z,102435.92